createdAt,value
2022-12-03T00:01:55.178Z,81.75
2022-12-03T00:06:58.816Z,81.63
2022-12-03T00:12:02.630Z,81.54
2022-12-03T00:17:06.358Z,81.57
2022-12-03T00:22:12.691Z,81.61
2022-12-03T00:27:16.761Z,82.00
2022-12-03T00:32:20.395Z,81.84
2022-12-03T00:37:24.211Z,81.65
2022-12-03T00:42:28.034Z,81.66
2022-12-03T00:47:32.160Z,82.03
2022-12-03T00:52:36.089Z,81.99
2022-12-03T00:57:39.808Z,82.07
2022-12-03T01:02:43.636Z,82.12
2022-12-03T01:07:48.063Z,82.26
2022-12-03T01:12:51.799Z,82.43
2022-12-03T01:17:55.498Z,82.70
2022-12-03T01:22:59.255Z,82.89
2022-12-03T01:28:03.001Z,82.83
2022-12-03T01:33:06.816Z,82.65
2022-12-03T01:38:10.530Z,82.58
2022-12-03T01:43:14.248Z,82.85
2022-12-03T01:48:18.457Z,82.94
2022-12-03T01:53:22.395Z,82.61
2022-12-03T01:58:29.851Z,82.38
2022-12-03T02:03:33.553Z,82.30
2022-12-03T02:08:41.149Z,82.42
2022-12-03T02:13:45.704Z,82.65
2022-12-03T02:18:49.514Z,82.66
2022-12-03T02:24:39.416Z,82.54
2022-12-03T02:29:43.341Z,82.69
2022-12-03T02:34:47.274Z,82.79
2022-12-03T02:39:56.681Z,82.65
2022-12-03T02:45:05.455Z,82.33
2022-12-03T02:50:13.871Z,81.96
2022-12-03T02:55:19.181Z,81.82
2022-12-03T03:00:23.428Z,82.18
2022-12-03T03:05:27.419Z,82.08
2022-12-03T03:10:34.544Z,82.40
2022-12-03T03:15:40.806Z,82.31
2022-12-03T03:20:45.855Z,82.21
2022-12-03T03:25:59.375Z,82.29
2022-12-03T03:31:06.753Z,82.18
2022-12-03T03:36:11.918Z,82.11
2022-12-03T03:41:17.000Z,82.04
2022-12-03T03:46:22.262Z,82.21
2022-12-03T03:51:26.677Z,82.40
2022-12-03T03:56:31.495Z,82.61
2022-12-03T04:01:35.345Z,82.50
2022-12-03T04:06:39.220Z,82.57
2022-12-03T04:12:01.586Z,82.55
2022-12-03T04:17:05.228Z,82.68
2022-12-03T04:22:28.076Z,82.82
2022-12-03T04:27:54.940Z,82.85
2022-12-03T04:33:17.913Z,82.64
2022-12-03T04:38:21.536Z,82.75
2022-12-03T04:43:25.458Z,82.89
2022-12-03T04:48:29.488Z,82.83
2022-12-03T04:53:36.017Z,82.72
2022-12-03T04:58:39.799Z,82.81
2022-12-03T05:03:43.424Z,83.02
2022-12-03T05:08:47.242Z,83.32
2022-12-03T05:13:52.641Z,83.46
2022-12-03T05:18:56.429Z,83.60
2022-12-03T05:24:00.059Z,83.76
2022-12-03T05:29:04.185Z,83.81
2022-12-03T05:34:07.885Z,83.58
2022-12-03T05:39:11.525Z,83.44
2022-12-03T05:44:20.322Z,83.34
2022-12-03T05:49:25.632Z,83.24
2022-12-03T05:54:29.357Z,82.93
2022-12-03T05:59:33.189Z,83.24
2022-12-03T06:09:38.889Z,83.86
2022-12-03T06:14:42.703Z,83.71
2022-12-03T06:19:46.338Z,83.69
2022-12-03T06:24:50.894Z,83.61
2022-12-03T06:29:54.795Z,83.66
2022-12-03T06:34:58.923Z,83.56
2022-12-03T06:40:02.756Z,83.35
2022-12-03T06:45:07.482Z,83.41
2022-12-03T06:50:12.354Z,83.32
2022-12-03T06:55:16.698Z,83.14
2022-12-03T07:00:21.232Z,83.24
2022-12-03T07:05:25.085Z,83.09
2022-12-03T07:10:29.012Z,83.07
2022-12-03T07:15:32.899Z,83.14
2022-12-03T07:20:37.236Z,83.43
2022-12-03T07:25:41.781Z,83.39
2022-12-03T07:30:45.602Z,83.26
2022-12-03T07:35:49.542Z,83.49
2022-12-03T07:40:53.464Z,83.54
2022-12-03T07:45:57.294Z,83.81
2022-12-03T07:51:01.349Z,83.76
2022-12-03T07:56:06.064Z,83.80
2022-12-03T08:01:10.800Z,83.76
2022-12-03T08:06:14.945Z,83.78
2022-12-03T08:11:18.784Z,83.95
2022-12-03T08:16:23.671Z,83.82
2022-12-03T08:21:36.627Z,83.76
2022-12-03T08:26:40.590Z,83.75
2022-12-03T08:31:57.471Z,83.71
2022-12-03T08:37:17.065Z,84.00
2022-12-03T08:42:44.008Z,84.17
2022-12-03T08:47:47.872Z,84.43
2022-12-03T08:52:54.598Z,84.11
2022-12-03T08:57:59.849Z,83.97
2022-12-03T09:03:03.674Z,84.14
2022-12-03T09:08:07.590Z,83.97
2022-12-03T09:13:11.441Z,83.86
2022-12-03T09:18:16.917Z,83.60
2022-12-03T09:23:20.723Z,83.82
2022-12-03T09:28:25.655Z,83.99
2022-12-03T09:33:32.791Z,83.99
2022-12-03T09:38:36.711Z,83.93
2022-12-03T09:44:03.338Z,83.76
2022-12-03T09:49:13.926Z,83.81
2022-12-03T09:54:26.033Z,83.85
2022-12-03T09:59:35.391Z,83.88
2022-12-03T10:04:39.213Z,83.75
2022-12-03T10:09:43.794Z,83.10
2022-12-03T10:14:49.557Z,82.81
2022-12-03T10:19:53.412Z,82.88
2022-12-03T10:25:24.350Z,83.06
2022-12-03T10:30:31.176Z,82.63
2022-12-03T10:35:43.538Z,82.43
2022-12-03T10:40:55.142Z,82.44
2022-12-03T10:46:04.400Z,82.26
2022-12-03T10:51:24.135Z,82.10
2022-12-03T10:56:34.657Z,82.14
2022-12-03T11:01:45.567Z,82.48
2022-12-03T11:06:55.762Z,82.38
2022-12-03T11:12:18.100Z,82.51
2022-12-03T11:17:47.388Z,82.64
2022-12-03T11:23:00.942Z,82.92
2022-12-03T11:28:15.781Z,82.99
2022-12-03T11:33:39.980Z,82.98
2022-12-03T11:38:59.235Z,82.92
2022-12-03T11:44:34.238Z,82.71
2022-12-03T11:49:48.545Z,82.82
2022-12-03T11:55:20.594Z,82.75
2022-12-03T12:00:29.630Z,82.74
2022-12-03T12:05:39.255Z,82.68
2022-12-03T12:10:54.907Z,82.71
2022-12-03T12:16:10.873Z,82.88
2022-12-03T12:21:50.624Z,83.13
2022-12-03T12:27:05.000Z,83.06
2022-12-03T12:32:20.582Z,82.79
2022-12-03T12:37:59.655Z,82.82
2022-12-03T12:43:20.443Z,82.67
2022-12-03T12:48:39.445Z,82.74
2022-12-03T12:53:47.115Z,82.50
2022-12-03T12:59:02.877Z,82.64
2022-12-03T13:04:26.087Z,82.57
2022-12-03T13:09:38.968Z,82.23
2022-12-03T13:14:51.361Z,81.82
2022-12-03T13:20:07.457Z,81.43
2022-12-03T13:26:01.713Z,81.39
2022-12-03T13:31:43.854Z,80.99
2022-12-03T13:36:58.508Z,81.35
2022-12-03T13:42:44.883Z,81.46
2022-12-03T13:48:04.951Z,81.75
2022-12-03T13:53:36.467Z,81.63
2022-12-03T13:58:44.646Z,81.46
2022-12-03T14:03:56.539Z,81.65
2022-12-03T14:09:13.379Z,81.80
2022-12-03T14:14:24.044Z,81.79
2022-12-03T14:19:39.813Z,81.96
2022-12-03T14:24:53.894Z,82.01
2022-12-03T14:30:10.477Z,82.18
2022-12-03T14:35:28.591Z,82.23
2022-12-03T14:40:43.432Z,82.47
2022-12-03T14:46:05.598Z,82.42
2022-12-03T14:51:14.153Z,82.36
2022-12-03T14:56:25.369Z,82.58
2022-12-03T15:01:37.900Z,82.66
2022-12-03T15:06:56.711Z,82.79
2022-12-03T15:12:16.398Z,82.57
2022-12-03T15:17:35.362Z,82.57
2022-12-03T15:22:51.097Z,82.63
2022-12-03T15:28:06.737Z,82.74
2022-12-03T15:33:18.725Z,82.75
2022-12-03T15:38:27.678Z,82.77
2022-12-03T15:43:40.192Z,82.65
2022-12-03T15:48:51.839Z,82.85
2022-12-03T15:54:01.608Z,83.09
2022-12-03T15:59:12.477Z,83.04
2022-12-03T16:04:18.516Z,82.99
2022-12-03T16:09:26.953Z,83.00
2022-12-03T16:14:31.363Z,83.15
2022-12-03T16:19:35.297Z,83.48
2022-12-03T16:24:39.420Z,83.50
2022-12-03T16:29:44.986Z,83.42
2022-12-03T16:34:48.827Z,83.14
2022-12-03T16:39:52.851Z,83.21
2022-12-03T16:45:09.168Z,83.36
2022-12-03T16:50:19.842Z,83.44
2022-12-03T16:55:26.134Z,83.56
2022-12-03T17:00:30.270Z,83.78
2022-12-03T17:05:33.989Z,83.96
2022-12-03T17:10:38.916Z,84.01
2022-12-03T17:15:42.999Z,83.98
2022-12-03T17:20:46.798Z,84.11
2022-12-03T17:25:51.033Z,84.25
2022-12-03T17:30:55.047Z,84.47
2022-12-03T17:35:58.991Z,84.28
2022-12-03T17:41:03.120Z,84.18
2022-12-03T17:46:07.712Z,84.31
2022-12-03T17:51:12.361Z,84.56
2022-12-03T17:56:16.022Z,84.68
2022-12-03T18:01:20.673Z,84.73
2022-12-03T18:06:25.109Z,84.88
2022-12-03T18:11:29.135Z,85.10
2022-12-03T18:16:33.662Z,85.36
2022-12-03T18:21:37.500Z,85.26
2022-12-03T18:26:43.106Z,85.49
2022-12-03T18:31:56.965Z,85.47
2022-12-03T18:37:18.351Z,85.54
2022-12-03T18:42:31.356Z,85.72
2022-12-03T18:47:49.264Z,85.80
2022-12-03T18:58:49.669Z,86.07
2022-12-03T19:03:56.067Z,86.47
2022-12-03T19:09:00.957Z,86.46
2022-12-03T19:14:06.895Z,86.19
2022-12-03T19:25:05.175Z,86.18
2022-12-03T19:30:12.949Z,86.11
2022-12-03T19:35:18.983Z,86.07
2022-12-03T19:40:24.240Z,85.95
2022-12-03T19:45:29.513Z,85.75
2022-12-03T19:50:33.283Z,85.73
2022-12-03T19:55:37.914Z,85.81
2022-12-03T20:00:43.347Z,85.93
2022-12-03T20:05:49.164Z,86.18
2022-12-03T20:10:54.750Z,85.99
2022-12-03T20:16:06.820Z,85.82
2022-12-03T20:21:14.329Z,85.78
2022-12-03T20:26:22.148Z,85.89
2022-12-03T20:31:30.740Z,86.07
2022-12-03T20:36:35.484Z,85.99
2022-12-03T20:41:39.437Z,85.96
2022-12-03T20:46:43.415Z,86.01
2022-12-03T20:52:15.348Z,85.89
2022-12-03T20:57:20.813Z,86.08
2022-12-03T21:02:26.427Z,86.29
2022-12-03T21:07:30.923Z,86.53
2022-12-03T21:12:35.054Z,86.39
2022-12-03T21:17:38.706Z,86.07
2022-12-03T21:22:42.747Z,85.93
2022-12-03T21:27:46.483Z,85.72
2022-12-03T21:32:50.355Z,85.68
2022-12-03T21:37:54.378Z,85.72
2022-12-03T21:42:58.207Z,85.74
2022-12-03T21:48:05.218Z,85.71
2022-12-03T21:53:11.459Z,85.68
2022-12-03T21:58:15.025Z,85.56
2022-12-03T22:03:19.830Z,85.78
2022-12-03T22:08:23.974Z,85.93
2022-12-03T22:13:28.444Z,85.92
2022-12-03T22:18:34.007Z,86.01
2022-12-03T22:23:40.333Z,86.13
2022-12-03T22:28:47.505Z,86.24
2022-12-03T22:33:51.516Z,86.46
2022-12-03T22:38:56.239Z,86.41
2022-12-03T22:44:00.414Z,86.41
2022-12-03T22:49:07.310Z,86.49
2022-12-03T22:54:11.962Z,86.25
2022-12-03T22:59:15.767Z,86.43
2022-12-03T23:04:20.063Z,86.61
2022-12-03T23:09:23.923Z,86.50
2022-12-03T23:14:27.674Z,86.54
2022-12-03T23:19:31.486Z,86.46
2022-12-03T23:24:35.415Z,86.33
2022-12-03T23:29:39.325Z,86.50
2022-12-03T23:34:43.741Z,86.68
2022-12-03T23:39:48.711Z,86.86
2022-12-03T23:44:52.741Z,86.99
2022-12-03T23:49:56.509Z,87.14
2022-12-03T23:55:00.284Z,87.41
